Time;durP1;ratioP1;P1;durP2;ratioP2;P2;SDS_P1;SDS_P2;PMS_P1;PMS_P2;Temp;Humidity;BMP_temperature;BMP_pressure;BME280_temperature;BME280_humidity;BME280_pressure;Samples;Min_cycle;Max_cycle;Signal;HPM_P1;HPM_P2
2023/02/06 00:00:39;;;;;;;26.60;18.17;;;;;;;8.22;58.61;100831.41;7018365;28;20233;-80
2023/02/06 00:04:00;;;;;;;27.50;20.17;;;;;;;7.63;58.39;100733.94;7018288;28;20250;-80
2023/02/06 00:07:22;;;;;;;29.40;19.20;;;;;;;8.27;58.56;100831.84;7018526;28;20255;-80
2023/02/06 00:10:45;;;;;;;26.83;19.67;;;;;;;8.16;59.08;100845.38;7018648;28;20211;-80
2023/02/06 00:14:06;;;;;;;28.77;19.63;;;;;;;8.16;58.94;100831.94;7018317;28;20244;-80
2023/02/06 00:17:28;;;;;;;27.00;19.10;;;;;;;7.62;58.60;100742.13;7018818;28;20255;-80
2023/02/06 00:20:49;;;;;;;26.63;19.93;;;;;;;8.31;58.03;100841.31;7020607;28;20254;-80
2023/02/06 00:24:11;;;;;;;29.93;19.87;;;;;;;7.60;58.49;100765.59;7019104;28;20223;-80
2023/02/06 00:27:34;;;;;;;27.70;19.40;;;;;;;8.23;58.69;100854.59;7020197;28;20273;-80
2023/02/06 00:30:56;;;;;;;29.50;19.50;;;;;;;8.02;58.33;100845.78;7020351;28;20302;-80
2023/02/06 00:34:17;;;;;;;27.67;19.50;;;;;;;8.40;57.96;100832.41;7020009;28;20256;-80
2023/02/06 00:37:39;;;;;;;26.97;19.30;;;;;;;7.98;57.58;100736.94;7020097;28;20272;-80
2023/02/06 00:41:00;;;;;;;25.70;19.67;;;;;;;8.52;57.15;100792.75;7019316;28;20219;-80
2023/02/06 00:44:23;;;;;;;26.80;18.43;;;;;;;8.47;56.89;100769.00;7019899;28;20294;-80
2023/02/06 00:47:45;;;;;;;23.57;17.67;;;;;;;8.58;56.55;100774.22;7018883;28;20236;-80
2023/02/06 00:51:06;;;;;;;22.97;16.13;;;;;;;8.41;56.17;100838.59;7018863;28;20240;-80
2023/02/06 00:54:28;;;;;;;23.23;16.67;;;;;;;8.53;56.92;100821.34;7018689;28;20298;-80
2023/02/06 00:57:50;;;;;;;23.57;16.07;;;;;;;7.82;56.00;100733.94;7019495;28;20234;-80
2023/02/06 01:01:13;;;;;;;23.77;16.07;;;;;;;8.22;58.11;100836.78;7018679;28;20249;-80
2023/02/06 01:04:34;;;;;;;24.17;17.13;;;;;;;8.62;57.06;100825.88;7017142;28;20280;-80
2023/02/06 01:07:56;;;;;;;24.10;17.47;;;;;;;8.53;57.84;100830.25;7017977;28;20257;-80
2023/02/06 01:11:19;;;;;;;21.90;16.50;;;;;;;7.92;57.63;100705.25;7035422;28;20244;-80
2023/02/06 01:14:41;;;;;;;25.90;16.77;;;;;;;8.56;57.53;100800.41;7047853;28;20213;-80
2023/02/06 01:18:12;;;;;;;23.43;16.90;;;;;;;8.29;56.58;100749.22;7049518;28;20238;-80
2023/02/06 01:21:34;;;;;;;23.27;16.27;;;;;;;8.72;56.71;100803.34;7013521;28;20201;-80
2023/02/06 01:24:55;;;;;;;23.47;16.20;;;;;;;8.07;57.01;100721.78;7014920;28;20231;-80
2023/02/06 01:28:27;;;;;;;28.63;17.83;;;;;;;8.13;57.48;100740.84;7017052;28;20288;-80
2023/02/06 01:31:56;;;;;;;21.47;15.40;;;;;;;8.29;56.63;100802.97;7015301;28;20203;-80
2023/02/06 01:35:19;;;;;;;29.53;17.20;;;;;;;8.14;56.48;100776.66;7016330;28;20218;-80
2023/02/06 01:38:43;;;;;;;28.03;18.00;;;;;;;7.92;56.77;100739.31;7024541;28;20224;-81
2023/02/06 01:42:06;;;;;;;27.27;18.90;;;;;;;7.98;58.10;100789.78;7025362;28;20270;-80
2023/02/06 01:45:42;;;;;;;30.00;18.57;;;;;;;7.49;59.11;100830.94;7022478;28;20225;-81
2023/02/06 01:49:06;;;;;;;26.53;18.47;;;;;;;7.51;57.72;100727.00;7023773;28;20231;-80
2023/02/06 01:52:30;;;;;;;24.43;17.70;;;;;;;8.22;57.43;100833.25;7034416;28;20291;-81
2023/02/06 01:55:52;;;;;;;29.03;18.23;;;;;;;8.06;58.64;100817.66;7057874;28;20201;-80
2023/02/06 01:59:14;;;;;;;28.43;19.03;;;;;;;8.07;58.41;100822.03;7032773;28;20817;-80
2023/02/06 02:02:37;;;;;;;25.93;17.50;;;;;;;7.88;58.90;100819.31;7032095;28;20270;-80
2023/02/06 02:06:01;;;;;;;26.07;16.97;;;;;;;7.86;58.67;100798.97;7031748;28;20691;-80
2023/02/06 02:09:24;;;;;;;26.43;17.90;;;;;;;8.17;58.64;100822.88;7032374;28;20242;-80
2023/02/06 02:12:46;;;;;;;29.70;17.50;;;;;;;7.69;59.33;100821.97;7032321;28;20743;-80
2023/02/06 02:16:12;;;;;;;28.93;19.97;;;;;;;8.02;59.31;100820.75;7027779;28;20190;-80
2023/02/06 02:20:16;;;;;;;28.23;19.33;;;;;;;7.49;59.89;100822.91;7031266;28;20300;-80
2023/02/06 02:23:41;;;;;;;28.27;18.83;;;;;;;7.81;59.53;100826.25;7030404;28;20267;-80
2023/02/06 02:27:15;;;;;;;29.90;19.70;;;;;;;7.73;60.01;100826.06;7030973;28;20320;-80
2023/02/06 02:30:59;;;;;;;30.40;19.77;;;;;;;7.54;60.36;100830.56;7031510;28;20248;-81
2023/02/06 02:34:53;;;;;;;29.27;19.73;;;;;;;7.39;60.85;100811.31;7031490;28;20269;-80
2023/02/06 02:38:24;;;;;;;33.90;20.67;;;;;;;7.83;59.97;100813.53;7032026;28;20231;-80
2023/02/06 02:41:49;;;;;;;27.47;18.83;;;;;;;8.30;58.85;100817.28;7032168;28;20250;-79
2023/02/06 02:45:15;;;;;;;29.07;18.90;;;;;;;8.04;58.81;100816.09;7032548;28;20269;-80
2023/02/06 02:48:39;;;;;;;26.07;18.17;;;;;;;8.00;58.72;100815.53;7031349;28;20252;-81
2023/02/06 02:52:02;;;;;;;33.27;19.97;;;;;;;7.59;59.73;100813.06;7031503;28;20205;-80
2023/02/06 02:55:24;;;;;;;33.10;22.33;;;;;;;7.29;59.92;100809.56;7031072;28;20624;-80
2023/02/06 02:58:47;;;;;;;34.50;20.83;;;;;;;7.52;60.11;100801.16;7036329;28;20596;-80
2023/02/06 03:02:11;;;;;;;33.20;21.70;;;;;;;7.70;60.01;100812.06;7036875;28;20293;-80
2023/02/06 03:05:35;;;;;;;32.40;20.73;;;;;;;7.31;60.71;100805.75;7036217;28;20227;-80
2023/02/06 03:09:00;;;;;;;32.67;21.73;;;;;;;7.67;60.33;100802.47;7036675;28;20225;-81
2023/02/06 03:12:24;;;;;;;39.93;23.47;;;;;;;7.49;60.46;100820.22;7037057;28;20385;-80
2023/02/06 03:15:50;;;;;;;33.47;21.63;;;;;;;7.33;60.02;100765.38;7035206;28;20211;-79
2023/02/06 03:19:13;;;;;;;33.67;20.97;;;;;;;7.60;60.23;100819.28;7035383;28;20840;-79
2023/02/06 03:22:37;;;;;;;32.50;21.57;;;;;;;7.48;59.94;100805.09;7035807;28;20293;-79
2023/02/06 03:26:02;;;;;;;36.73;23.47;;;;;;;7.32;61.00;100815.50;7034423;28;20239;-79
2023/02/06 03:29:24;;;;;;;35.73;20.70;;;;;;;7.60;59.84;100798.63;7035080;28;20238;-79
2023/02/06 03:32:47;;;;;;;32.80;21.10;;;;;;;7.40;60.34;100804.94;7034886;28;20297;-79
2023/02/06 03:36:15;;;;;;;35.70;22.50;;;;;;;7.26;60.53;100765.06;7034851;28;20331;-80
2023/02/06 03:39:38;;;;;;;37.57;23.30;;;;;;;8.06;59.49;100795.28;7054843;28;20244;-79
2023/02/06 03:43:03;;;;;;;38.17;22.50;;;;;;;8.27;59.02;100796.06;7035484;28;20623;-79
2023/02/06 03:46:25;;;;;;;45.97;29.50;;;;;;;8.44;58.31;100806.09;7034451;28;20371;-79
2023/02/06 03:49:47;;;;;;;33.63;20.97;;;;;;;8.48;58.06;100807.50;7034979;28;20317;-79
2023/02/06 03:53:10;;;;;;;34.73;20.97;;;;;;;7.97;57.96;100821.19;7034955;28;20244;-79
2023/02/06 03:56:35;;;;;;;29.27;19.40;;;;;;;8.16;58.18;100815.81;7034588;28;20320;-79
2023/02/06 03:59:58;;;;;;;39.30;22.13;;;;;;;7.73;59.08;100804.59;7035017;28;20292;-79
2023/02/06 04:03:21;;;;;;;37.90;22.17;;;;;;;7.58;60.63;100816.72;7034357;28;20280;-79
2023/02/06 04:06:43;;;;;;;43.07;24.70;;;;;;;7.94;59.28;100810.72;7034002;28;20230;-79
2023/02/06 04:10:05;;;;;;;35.33;23.20;;;;;;;8.07;59.54;100823.88;7033502;28;20293;-79
2023/02/06 04:13:27;;;;;;;41.20;24.40;;;;;;;7.92;58.81;100823.44;7033882;28;20309;-80
2023/02/06 04:16:49;;;;;;;35.47;23.23;;;;;;;7.70;58.99;100777.16;7031460;28;20888;-80
2023/02/06 04:20:11;;;;;;;39.00;24.00;;;;;;;8.19;58.84;100823.59;7033997;28;20375;-79
2023/02/06 04:23:33;;;;;;;36.00;22.30;;;;;;;7.99;58.35;100834.47;7033736;28;20685;-79
2023/02/06 04:26:55;;;;;;;38.13;22.67;;;;;;;8.14;58.33;100815.09;7033311;28;20367;-80
2023/02/06 04:30:17;;;;;;;35.33;22.43;;;;;;;8.07;58.39;100816.66;7033958;28;20776;-79
2023/02/06 04:33:39;;;;;;;35.37;22.83;;;;;;;7.88;58.71;100826.53;7033625;28;20267;-79
2023/02/06 04:37:02;;;;;;;34.90;22.40;;;;;;;7.82;58.80;100825.25;7033102;28;20330;-79
2023/02/06 04:40:23;;;;;;;33.47;23.27;;;;;;;7.72;59.18;100820.88;7032850;28;20225;-79
2023/02/06 04:43:45;;;;;;;36.97;24.67;;;;;;;6.89;61.61;100820.25;7033552;28;20425;-79
2023/02/06 04:47:06;;;;;;;38.00;24.00;;;;;;;7.07;60.95;100813.28;7032573;28;20310;-79
2023/02/06 04:50:30;;;;;;;36.77;23.90;;;;;;;7.53;59.92;100812.72;7032879;28;20709;-79
2023/02/06 04:53:52;;;;;;;36.83;25.43;;;;;;;7.59;60.02;100812.19;7032771;28;20206;-79
2023/02/06 04:57:13;;;;;;;37.27;23.97;;;;;;;7.67;59.00;100810.50;7032564;28;20251;-79
2023/02/06 05:00:35;;;;;;;35.97;22.97;;;;;;;7.70;58.03;100806.69;7033223;28;20214;-79
2023/02/06 05:03:56;;;;;;;33.77;22.73;;;;;;;7.03;59.87;100814.56;7032537;28;20297;-79
2023/02/06 05:07:19;;;;;;;36.53;24.33;;;;;;;7.44;58.51;100818.94;7032552;28;20383;-79
2023/02/06 05:10:41;;;;;;;31.50;22.47;;;;;;;7.46;57.96;100806.22;7032145;28;20301;-79
2023/02/06 05:14:02;;;;;;;34.23;23.90;;;;;;;7.35;57.26;100830.47;7031006;28;20249;-79
2023/02/06 05:17:23;;;;;;;32.03;23.00;;;;;;;6.76;59.39;100798.16;7031351;28;20201;-79
2023/02/06 05:20:45;;;;;;;33.60;23.27;;;;;;;6.51;60.21;100820.03;7026855;28;20345;-79
2023/02/06 05:24:08;;;;;;;38.20;24.40;;;;;;;7.03;58.50;100821.75;7031610;28;20274;-79
2023/02/06 05:27:29;;;;;;;37.47;24.67;;;;;;;6.21;60.29;100758.34;7031350;28;20306;-79
2023/02/06 05:30:51;;;;;;;33.73;23.93;;;;;;;6.88;59.55;100842.69;7034480;28;20213;-80
2023/02/06 05:34:12;;;;;;;34.07;22.80;;;;;;;6.44;60.52;100821.53;7038922;28;20301;-79
2023/02/06 05:37:36;;;;;;;33.00;22.97;;;;;;;6.81;59.70;100824.56;7031187;28;20317;-79
2023/02/06 05:40:59;;;;;;;33.10;23.60;;;;;;;6.53;60.28;100823.41;7029093;28;20241;-79
2023/02/06 05:44:21;;;;;;;30.50;22.80;;;;;;;6.64;59.57;100806.41;7030797;28;20298;-79
2023/02/06 05:47:42;;;;;;;34.23;22.67;;;;;;;6.61;59.17;100828.97;7030667;28;20239;-79
2023/02/06 05:51:04;;;;;;;36.97;24.80;;;;;;;6.27;60.89;100829.28;7032041;28;20216;-82
2023/02/06 05:54:27;;;;;;;29.87;22.10;;;;;;;6.37;60.84;100836.41;7019669;28;20905;-80
2023/02/06 05:57:50;;;;;;;32.07;23.27;;;;;;;6.55;60.30;100831.31;7017068;28;20227;-79
2023/02/06 06:01:12;;;;;;;31.03;22.57;;;;;;;7.06;58.54;100819.63;7019930;28;20264;-79
2023/02/06 06:04:33;;;;;;;32.27;24.53;;;;;;;6.61;58.84;100812.03;7021949;28;20273;-79
2023/02/06 06:07:55;;;;;;;31.17;22.73;;;;;;;6.77;58.88;100813.25;7020948;28;20238;-79
2023/02/06 06:11:17;;;;;;;33.60;23.40;;;;;;;6.99;58.54;100810.44;7007067;28;20201;-79
2023/02/06 06:14:39;;;;;;;29.20;21.07;;;;;;;6.84;58.92;100800.19;7017730;28;20667;-79
2023/02/06 06:18:01;;;;;;;28.93;21.43;;;;;;;6.53;59.52;100828.78;7020193;28;20219;-79
2023/02/06 06:21:23;;;;;;;27.03;21.23;;;;;;;6.81;58.90;100824.56;7029576;28;20276;-82
2023/02/06 06:24:44;;;;;;;35.67;22.67;;;;;;;6.90;59.27;100837.19;7021882;28;20291;-78
2023/02/06 06:28:06;;;;;;;27.57;21.13;;;;;;;6.76;58.85;100833.03;7000434;28;20707;-78
2023/02/06 06:31:29;;;;;;;32.63;21.73;;;;;;;7.11;57.72;100854.97;7019169;28;20280;-78
2023/02/06 06:34:50;;;;;;;29.33;21.57;;;;;;;7.31;57.25;100851.38;7029374;28;20250;-78
2023/02/06 06:38:11;;;;;;;27.97;21.90;;;;;;;7.21;57.12;100842.44;7029869;28;20279;-78
2023/02/06 06:41:33;;;;;;;31.93;24.40;;;;;;;7.03;57.92;100837.81;7029021;28;20719;-78
2023/02/06 06:44:54;;;;;;;33.13;21.80;;;;;;;7.03;57.63;100793.09;7029584;28;20217;-79
2023/02/06 06:48:17;;;;;;;27.23;20.20;;;;;;;7.79;56.86;100844.31;7030271;28;20323;-78
2023/02/06 06:51:39;;;;;;;29.60;21.57;;;;;;;7.90;55.42;100846.06;7031077;28;20248;-79
2023/02/06 06:55:00;;;;;;;29.23;21.30;;;;;;;7.46;56.16;100822.31;7030304;28;20692;-78
2023/02/06 06:58:22;;;;;;;21.27;17.07;;;;;;;6.61;56.61;100838.84;7030167;28;20229;-78
2023/02/06 07:01:43;;;;;;;26.63;18.33;;;;;;;6.83;57.45;100838.72;7030599;28;20343;-78
2023/02/06 07:05:06;;;;;;;24.73;18.27;;;;;;;6.92;56.50;100844.13;7030074;28;20576;-79
2023/02/06 07:08:28;;;;;;;24.57;17.37;;;;;;;7.09;55.57;100856.06;7030036;28;20312;-78
2023/02/06 07:11:50;;;;;;;24.03;17.83;;;;;;;6.57;56.17;100822.19;7029858;28;20220;-78
2023/02/06 07:15:11;;;;;;;25.53;19.77;;;;;;;7.11;56.61;100852.28;7029267;28;20212;-78
2023/02/06 07:18:33;;;;;;;24.47;18.20;;;;;;;7.15;56.12;100859.09;7029571;28;20365;-78
2023/02/06 07:21:56;;;;;;;25.70;18.83;;;;;;;7.41;56.23;100851.41;7025194;28;20281;-78
2023/02/06 07:25:19;;;;;;;25.60;19.60;;;;;;;7.37;55.93;100856.19;7029003;28;20742;-78
2023/02/06 07:28:41;;;;;;;24.77;17.93;;;;;;;7.19;56.94;100865.03;7029976;28;20237;-78
2023/02/06 07:32:02;;;;;;;23.23;17.27;;;;;;;7.25;55.73;100834.97;7030458;28;20270;-78
2023/02/06 07:35:24;;;;;;;23.20;16.37;;;;;;;7.48;54.59;100841.84;7029886;28;20852;-78
2023/02/06 07:38:47;;;;;;;17.80;15.57;;;;;;;6.70;55.07;100816.59;7028801;28;20319;-79
2023/02/06 07:42:10;;;;;;;20.60;15.90;;;;;;;6.57;56.02;100865.06;7031092;28;20198;-78
2023/02/06 07:45:32;;;;;;;23.07;16.43;;;;;;;6.63;56.88;100864.53;7034689;28;20544;-79
2023/02/06 07:48:53;;;;;;;22.37;17.13;;;;;;;6.70;56.99;100863.03;7034175;28;20319;-77
2023/02/06 07:52:15;;;;;;;20.93;15.47;;;;;;;7.15;55.89;100848.34;7037979;28;20212;-79
2023/02/06 07:55:38;;;;;;;21.57;16.53;;;;;;;7.32;54.85;100852.22;7033826;28;20805;-79
2023/02/06 07:58:59;;;;;;;19.23;14.53;;;;;;;6.55;56.38;100863.50;7037899;28;20267;-79
2023/02/06 08:02:21;;;;;;;21.40;15.53;;;;;;;7.04;54.96;100860.97;7036723;28;20286;-78
2023/02/06 08:05:42;;;;;;;20.23;15.40;;;;;;;7.16;54.12;100859.91;7055172;28;20371;-78
2023/02/06 08:09:04;;;;;;;19.70;14.03;;;;;;;7.03;54.33;100845.88;7051199;28;20277;-78
2023/02/06 08:12:29;;;;;;;18.80;14.03;;;;;;;7.48;52.64;100815.00;7047599;28;20215;-79
2023/02/06 08:15:51;;;;;;;20.07;14.07;;;;;;;7.48;53.16;100842.69;7034296;28;20290;-78
2023/02/06 08:19:12;;;;;;;18.37;13.80;;;;;;;7.42;53.61;100840.53;7034344;28;20641;-78
2023/02/06 08:22:33;;;;;;;20.27;15.17;;;;;;;7.01;55.00;100861.25;7033947;28;20208;-78
2023/02/06 08:26:01;;;;;;;20.57;12.37;;;;;;;6.48;55.33;100852.44;7033990;28;20252;-78
2023/02/06 08:29:25;;;;;;;15.67;12.20;;;;;;;6.71;54.36;100854.00;7033942;28;20732;-78
2023/02/06 08:32:46;;;;;;;17.10;12.93;;;;;;;5.91;56.04;100838.56;7007254;28;20198;-78
2023/02/06 08:36:09;;;;;;;16.60;13.23;;;;;;;7.16;54.93;100852.72;7006285;28;20293;-79
2023/02/06 08:39:30;;;;;;;18.73;12.97;;;;;;;6.55;56.12;100856.28;7005327;28;20319;-78
2023/02/06 08:42:52;;;;;;;17.47;11.63;;;;;;;7.21;53.67;100863.03;7036501;28;20253;-80
2023/02/06 08:46:16;;;;;;;16.10;11.60;;;;;;;6.85;53.76;100844.78;7038253;28;20406;-80
2023/02/06 08:49:38;;;;;;;15.73;11.43;;;;;;;6.66;54.70;100850.03;7053703;28;20280;-81
2023/02/06 08:52:59;;;;;;;14.73;10.87;;;;;;;6.99;53.46;100855.16;7007750;28;20290;-81
2023/02/06 08:56:21;;;;;;;16.97;10.87;;;;;;;6.63;54.04;100827.03;7020627;28;20352;-81
2023/02/06 08:59:42;;;;;;;16.67;11.50;;;;;;;6.53;54.61;100857.38;7034486;28;20289;-81
2023/02/06 09:03:05;;;;;;;14.90;11.37;;;;;;;6.16;55.71;100858.78;7035558;28;20210;-82
2023/02/06 09:06:27;;;;;;;14.27;10.50;;;;;;;6.81;54.36;100873.69;7039867;28;20293;-81
2023/02/06 09:09:48;;;;;;;13.87;11.80;;;;;;;6.10;54.71;100865.50;7035128;28;20291;-81
2023/02/06 09:13:10;;;;;;;14.87;10.70;;;;;;;6.19;55.55;100855.88;7032739;28;20300;-81
2023/02/06 09:16:32;;;;;;;13.60;11.57;;;;;;;6.42;54.22;100830.69;7007431;28;20737;-82
2023/02/06 09:19:55;;;;;;;12.60;10.77;;;;;;;6.57;54.19;100854.34;7007142;28;20222;-81
2023/02/06 09:23:17;;;;;;;16.30;10.33;;;;;;;7.01;52.66;100872.00;7006694;28;20247;-80
2023/02/06 09:26:40;;;;;;;15.27;11.00;;;;;;;6.12;53.47;100820.69;7017509;28;20226;-80
2023/02/06 09:30:02;;;;;;;12.53;10.10;;;;;;;6.49;54.25;100845.25;7024056;28;20306;-80
2023/02/06 09:33:24;;;;;;;12.87;9.80;;;;;;;7.47;52.39;100850.84;7010811;28;20738;-80
2023/02/06 09:36:47;;;;;;;10.90;9.80;;;;;;;7.89;50.84;100850.56;7025986;28;20197;-80
2023/02/06 09:40:10;;;;;;;14.27;10.63;;;;;;;7.26;51.25;100826.78;7012811;28;20354;-80
2023/02/06 09:43:32;;;;;;;12.57;10.53;;;;;;;6.65;53.30;100825.03;7010468;28;20199;-80
2023/02/06 09:46:57;;;;;;;14.37;10.47;;;;;;;7.54;52.27;100823.34;7009327;28;20313;-80
2023/02/06 09:50:25;;;;;;;14.90;10.47;;;;;;;7.63;51.44;100790.31;7008654;28;20352;-81
2023/02/06 09:53:56;;;;;;;12.57;10.10;;;;;;;7.95;50.46;100808.88;7024712;28;20540;-81
2023/02/06 09:57:24;;;;;;;14.90;11.57;;;;;;;7.02;52.17;100810.16;7028138;28;20687;-81
2023/02/06 10:00:50;;;;;;;20.67;11.63;;;;;;;6.92;53.44;100806.59;7020606;28;20195;-81
2023/02/06 10:04:28;;;;;;;13.37;10.33;;;;;;;7.25;52.82;100813.50;7037149;28;20198;-80
2023/02/06 10:07:57;;;;;;;11.60;9.70;;;;;;;7.18;52.63;100783.69;7035993;28;20266;-80
2023/02/06 10:11:30;;;;;;;11.83;9.70;;;;;;;7.82;50.97;100798.41;7035750;28;20282;-80
2023/02/06 10:14:55;;;;;;;16.77;10.77;;;;;;;7.77;50.93;100763.06;7031527;28;20191;-80
2023/02/06 10:18:21;;;;;;;11.93;9.63;;;;;;;7.93;51.04;100798.28;7028487;28;20333;-80
2023/02/06 10:21:47;;;;;;;13.77;10.13;;;;;;;8.21;49.70;100794.78;7003450;28;20713;-80
2023/02/06 10:25:19;;;;;;;12.57;10.43;;;;;;;8.26;50.15;100784.44;7008853;28;20285;-80
2023/02/06 10:28:43;;;;;;;14.90;9.13;;;;;;;7.33;51.03;100790.38;7032439;28;20716;-80
2023/02/06 10:32:15;;;;;;;13.47;9.77;;;;;;;7.90;52.39;100771.69;7032807;28;20295;-83
2023/02/06 10:35:46;;;;;;;12.83;9.30;;;;;;;8.18;52.22;100727.84;7030121;28;20270;-84
2023/02/06 10:39:38;;;;;;;12.03;10.23;;;;;;;8.23;52.77;100712.19;7003164;28;20354;-82
2023/02/06 10:43:05;;;;;;;12.13;8.87;;;;;;;8.57;49.81;100775.22;7003024;28;20252;-79
2023/02/06 10:46:37;;;;;;;12.53;9.53;;;;;;;7.57;50.69;100782.81;7002247;28;20216;-83
2023/02/06 10:50:03;;;;;;;10.13;8.33;;;;;;;7.94;50.92;100777.63;7002810;28;20238;-79
2023/02/06 10:53:28;;;;;;;10.03;7.40;;;;;;;8.68;48.29;100769.69;7002890;28;20228;-79
2023/02/06 10:56:51;;;;;;;8.30;6.73;;;;;;;8.41;46.43;100766.03;7022867;28;20778;-80
2023/02/06 11:00:19;;;;;;;7.17;6.47;;;;;;;8.54;47.31;100762.06;7031503;28;20697;-83
2023/02/06 11:03:45;;;;;;;7.97;5.73;;;;;;;8.17;47.90;100765.59;7031904;28;20279;-80
2023/02/06 11:07:11;;;;;;;6.53;4.80;;;;;;;7.99;47.20;100770.00;7031962;28;20354;-83
2023/02/06 11:10:33;;;;;;;7.13;5.37;;;;;;;8.05;47.49;100754.16;7030861;28;20268;-83
2023/02/06 11:13:58;;;;;;;7.93;4.80;;;;;;;8.05;46.15;100747.94;7031015;28;20685;-80
2023/02/06 11:17:21;;;;;;;5.97;5.00;;;;;;;6.77;49.20;100764.19;7006680;28;20215;-80
2023/02/06 11:20:46;;;;;;;11.17;5.80;;;;;;;7.34;48.90;100759.00;7015273;28;20202;-81
2023/02/06 11:24:09;;;;;;;7.60;4.57;;;;;;;7.02;46.97;100630.47;7026263;28;20267;-81
2023/02/06 11:27:32;;;;;;;8.27;5.33;;;;;;;7.09;47.34;100644.19;7036464;28;20242;-81
2023/02/06 11:30:56;;;;;;;8.43;5.27;;;;;;;8.40;46.13;100698.00;7035904;28;20675;-80
2023/02/06 11:34:26;;;;;;;8.50;6.03;;;;;;;8.19;46.29;100728.72;7046026;28;20223;-81
2023/02/06 11:37:52;;;;;;;7.30;5.30;;;;;;;8.10;44.93;100588.03;7043177;28;20215;-81
2023/02/06 11:41:17;;;;;;;6.97;5.13;;;;;;;8.55;44.83;100698.38;7037290;28;20208;-82
2023/02/06 11:44:42;;;;;;;10.50;5.23;;;;;;;9.58;44.55;100718.50;7019863;28;20206;-81
2023/02/06 11:48:06;;;;;;;7.27;5.90;;;;;;;9.45;43.80;100731.50;7019587;28;20376;-81
2023/02/06 11:51:47;;;;;;;8.57;6.03;;;;;;;7.74;44.93;100716.84;7037191;28;20214;-82
2023/02/06 11:55:21;;;;;;;6.53;5.57;;;;;;;8.32;46.08;100713.16;7034385;28;20204;-81
2023/02/06 11:58:44;;;;;;;11.60;5.90;;;;;;;8.91;43.79;100705.59;7045961;28;20297;-81
2023/02/06 12:02:24;;;;;;;7.73;5.83;;;;;;;8.02;45.18;100714.16;7056136;28;20303;-83
2023/02/06 12:05:46;;;;;;;7.33;6.33;;;;;;;7.78;46.38;100713.72;7036238;28;20243;-81
2023/02/06 12:09:11;;;;;;;8.57;5.87;;;;;;;7.19;47.99;100672.69;7043359;28;20326;-80
2023/02/06 12:12:37;;;;;;;8.27;6.70;;;;;;;6.86;48.18;100654.28;7042231;28;20244;-80
2023/02/06 12:16:01;;;;;;;9.13;6.77;;;;;;;7.31;47.96;100708.31;7043141;28;20194;-81
2023/02/06 12:19:28;;;;;;;10.43;6.90;;;;;;;7.58;48.24;100693.25;7020748;28;20291;-81
2023/02/06 12:22:54;;;;;;;8.17;6.27;;;;;;;7.43;47.48;100683.91;7035035;28;20847;-82
2023/02/06 12:26:18;;;;;;;7.80;5.73;;;;;;;7.64;47.88;100664.97;7033817;28;20193;-82
2023/02/06 12:29:44;;;;;;;9.27;7.27;;;;;;;7.85;47.59;100677.25;7012461;28;20653;-81
2023/02/06 12:33:11;;;;;;;12.23;7.20;;;;;;;7.75;48.03;100679.13;7034175;28;20290;-82
2023/02/06 12:36:35;;;;;;;11.43;6.83;;;;;;;7.69;47.67;100685.06;7033700;28;20277;-81
2023/02/06 12:39:58;;;;;;;8.10;6.17;;;;;;;8.27;47.06;100686.72;7028281;28;20308;-81
2023/02/06 12:43:20;;;;;;;8.67;7.00;;;;;;;8.32;47.54;100692.50;7033590;28;20192;-81
2023/02/06 12:46:45;;;;;;;7.70;6.90;;;;;;;8.41;45.87;100685.41;7033416;28;20753;-81
2023/02/06 12:50:14;;;;;;;7.33;6.23;;;;;;;7.83;46.49;100644.34;7034338;28;20268;-81
2023/02/06 12:53:39;;;;;;;9.67;6.73;;;;;;;8.41;45.74;100680.03;7028904;28;20282;-82
2023/02/06 12:57:05;;;;;;;7.60;6.30;;;;;;;8.14;45.63;100661.94;7006141;28;20211;-81
2023/02/06 13:00:57;;;;;;;7.07;6.00;;;;;;;7.91;45.07;100665.94;7005864;28;20624;-81
2023/02/06 13:04:23;;;;;;;6.10;5.50;;;;;;;7.75;44.93;100652.28;7006523;28;20275;-81
2023/02/06 13:07:45;;;;;;;5.20;4.80;;;;;;;7.48;45.82;100635.19;7005864;28;20227;-80
2023/02/06 13:11:09;;;;;;;8.83;5.20;;;;;;;7.44;44.78;100642.69;7006097;28;20853;-80
2023/02/06 13:14:30;;;;;;;6.00;5.40;;;;;;;7.48;44.10;100641.38;7033274;28;20319;-80
2023/02/06 13:17:53;;;;;;;5.40;4.80;;;;;;;7.47;44.48;100636.16;7033020;28;20311;-80
2023/02/06 13:21:21;;;;;;;7.17;5.77;;;;;;;7.77;45.63;100644.09;7032878;28;20229;-80
2023/02/06 13:24:44;;;;;;;6.43;5.10;;;;;;;7.33;44.31;100577.56;7031897;28;20550;-81
2023/02/06 13:28:39;;;;;;;6.63;5.20;;;;;;;7.85;44.88;100641.50;7033117;28;20364;-80
2023/02/06 13:32:29;;;;;;;7.00;5.20;;;;;;;7.75;45.22;100648.72;7032288;28;20346;-80
2023/02/06 13:35:56;;;;;;;5.73;5.13;;;;;;;7.86;44.03;100632.47;7032394;28;20339;-79
2023/02/06 13:39:33;;;;;;;5.00;4.50;;;;;;;7.75;44.91;100624.56;7031772;28;20286;-80
2023/02/06 13:42:57;;;;;;;5.20;4.50;;;;;;;8.36;44.12;100642.84;7029141;28;20193;-81
2023/02/06 13:46:21;;;;;;;5.03;4.60;;;;;;;8.38;43.43;100637.31;7006048;28;20211;-80
2023/02/06 13:50:30;;;;;;;4.73;4.33;;;;;;;8.84;43.31;100621.97;7004809;28;20236;-80
2023/02/06 13:54:13;;;;;;;6.13;4.77;;;;;;;8.87;40.92;100620.81;6994299;28;20205;-80
2023/02/06 13:57:49;;;;;;;6.93;4.63;;;;;;;8.54;41.75;100642.94;7012939;28;20253;-80
2023/02/06 14:01:13;;;;;;;6.30;4.53;;;;;;;7.82;43.72;100615.78;7032541;28;20260;-80
2023/02/06 14:04:34;;;;;;;4.97;4.47;;;;;;;7.88;44.06;100636.69;7025130;28;20187;-80
2023/02/06 14:08:10;;;;;;;5.23;4.73;;;;;;;7.87;45.31;100639.53;7031456;28;20628;-80
2023/02/06 14:15:33;;;;;;;8.27;4.73;;;;;;;8.79;43.54;100644.94;7031339;28;20181;-81
2023/02/06 14:18:58;;;;;;;4.47;3.83;;;;;;;8.49;43.55;100629.06;7032504;28;20228;-81
2023/02/06 14:22:27;;;;;;;4.60;4.13;;;;;;;8.97;42.54;100641.31;7032142;28;20198;-80
2023/02/06 14:25:59;;;;;;;4.67;4.27;;;;;;;9.28;42.58;100630.03;7031661;28;20249;-81
2023/02/06 14:29:28;;;;;;;4.80;3.90;;;;;;;8.69;42.27;100631.53;7031459;28;20259;-81
2023/02/06 14:32:59;;;;;;;4.70;4.23;;;;;;;8.87;42.79;100623.50;7032380;28;20704;-80
2023/02/06 14:36:38;;;;;;;4.90;4.40;;;;;;;8.52;43.20;100626.94;7031057;28;20523;-80
2023/02/06 14:40:00;;;;;;;5.03;4.03;;;;;;;8.45;42.47;100598.97;7030796;28;20235;-79
2023/02/06 14:43:24;;;;;;;6.13;4.60;;;;;;;9.44;42.71;100640.97;7003256;28;20199;-79
2023/02/06 14:46:46;;;;;;;5.80;4.07;;;;;;;9.62;40.49;100649.06;7002516;28;20206;-79
2023/02/06 14:50:18;;;;;;;4.93;3.90;;;;;;;8.52;42.70;100637.69;7003497;28;20235;-79
2023/02/06 14:53:41;;;;;;;5.53;4.20;;;;;;;7.55;44.69;100630.94;7023794;28;20609;-80
2023/02/06 14:57:06;;;;;;;5.60;3.63;;;;;;;7.67;44.03;100649.44;7028133;28;20211;-80
2023/02/06 15:00:28;;;;;;;4.00;3.63;;;;;;;7.93;44.92;100612.09;7011701;28;20321;-80
2023/02/06 15:03:53;;;;;;;4.97;3.57;;;;;;;8.36;44.20;100640.16;7013686;28;20214;-80
2023/02/06 15:07:23;;;;;;;3.70;3.40;;;;;;;7.97;44.81;100608.13;7012003;28;20581;-80
2023/02/06 15:10:45;;;;;;;4.83;3.80;;;;;;;8.00;45.31;100627.50;7036938;28;20191;-80
2023/02/06 15:14:30;;;;;;;5.00;4.10;;;;;;;8.05;45.12;100648.53;7027163;28;20296;-80
2023/02/06 15:17:59;;;;;;;4.20;3.80;;;;;;;7.50;45.87;100652.00;7017093;28;20246;-80
2023/02/06 15:21:21;;;;;;;4.40;3.80;;;;;;;7.65;45.15;100659.47;7034374;28;20200;-81
2023/02/06 15:24:54;;;;;;;5.17;3.60;;;;;;;8.43;44.85;100643.94;7036282;28;20259;-80
2023/02/06 15:28:18;;;;;;;6.17;3.87;;;;;;;8.25;44.93;100639.50;7027646;28;20225;-80
2023/02/06 15:31:40;;;;;;;5.50;3.70;;;;;;;7.76;45.98;100637.00;7025329;28;20215;-80
2023/02/06 15:35:02;;;;;;;4.33;3.93;;;;;;;8.07;45.19;100633.97;7007824;28;20255;-80
2023/02/06 15:38:25;;;;;;;4.00;3.60;;;;;;;7.91;45.46;100633.72;7009361;28;20711;-81
2023/02/06 15:41:50;;;;;;;5.63;3.97;;;;;;;8.27;45.49;100619.53;7014832;28;20229;-81
2023/02/06 15:45:19;;;;;;;4.73;4.13;;;;;;;7.44;46.74;100599.75;7037264;28;20210;-81
2023/02/06 15:48:48;;;;;;;7.30;4.10;;;;;;;7.97;46.07;100633.16;7012329;28;20254;-81
2023/02/06 15:52:10;;;;;;;4.57;4.17;;;;;;;8.05;46.08;100640.47;7008846;28;20196;-80